sensor_id;sensor_type;location;lat;lon;timestamp;temperature;humidity
41547;DHT22;27271;45.412;10.852;2023-06-14T04:33:43;18.20;92.40
41547;DHT22;27271;45.412;10.852;2023-06-14T04:37:14;18.40;99.90
41547;DHT22;27271;45.412;10.852;2023-06-14T04:40:43;18.70;11.30
41547;DHT22;27271;45.412;10.852;2023-06-14T04:44:13;18.80;1.00
41547;DHT22;27271;45.412;10.852;2023-06-14T04:47:41;19.00;1.00
41547;DHT22;27271;45.412;10.852;2023-06-14T04:51:04;19.10;1.00
41547;DHT22;27271;45.412;10.852;2023-06-14T04:54:26;19.20;99.90
41547;DHT22;27271;45.412;10.852;2023-06-14T04:57:49;19.30;99.90
41547;DHT22;27271;45.412;10.852;2023-06-14T05:01:14;19.50;99.90
41547;DHT22;27271;45.412;10.852;2023-06-14T05:04:39;19.60;99.90
41547;DHT22;27271;45.412;10.852;2023-06-14T05:08:02;19.80;99.90
41547;DHT22;27271;45.412;10.852;2023-06-14T05:11:24;19.90;49.80
41547;DHT22;27271;45.412;10.852;2023-06-14T05:14:46;20.00;1.00
41547;DHT22;27271;45.412;10.852;2023-06-14T05:18:10;20.20;1.00
41547;DHT22;27271;45.412;10.852;2023-06-14T05:21:32;20.50;99.90
41547;DHT22;27271;45.412;10.852;2023-06-14T05:25:04;20.70;99.90
41547;DHT22;27271;45.412;10.852;2023-06-14T05:28:27;21.00;99.90
41547;DHT22;27271;45.412;10.852;2023-06-14T05:31:49;21.00;99.90
41547;DHT22;27271;45.412;10.852;2023-06-14T05:35:11;21.00;99.90
41547;DHT22;27271;45.412;10.852;2023-06-14T05:38:34;21.10;99.90
41547;DHT22;27271;45.412;10.852;2023-06-14T05:41:56;21.20;99.90
41547;DHT22;27271;45.412;10.852;2023-06-14T05:45:18;21.50;99.90
41547;DHT22;27271;45.412;10.852;2023-06-14T05:48:40;21.70;89.50
41547;DHT22;27271;45.412;10.852;2023-06-14T05:52:02;22.00;99.90
41547;DHT22;27271;45.412;10.852;2023-06-14T05:55:25;21.90;99.90
41547;DHT22;27271;45.412;10.852;2023-06-14T05:58:47;21.80;99.90
41547;DHT22;27271;45.412;10.852;2023-06-14T06:02:09;21.60;29.30
41547;DHT22;27271;45.412;10.852;2023-06-14T06:05:32;21.50;89.80
41547;DHT22;27271;45.412;10.852;2023-06-14T06:08:54;21.40;99.90
41547;DHT22;27271;45.412;10.852;2023-06-14T06:12:16;21.40;99.90
41547;DHT22;27271;45.412;10.852;2023-06-14T06:15:38;21.30;99.90
41547;DHT22;27271;45.412;10.852;2023-06-14T06:19:00;21.30;99.90
41547;DHT22;27271;45.412;10.852;2023-06-14T06:22:22;21.30;99.90
41547;DHT22;27271;45.412;10.852;2023-06-14T06:25:44;21.30;99.90
41547;DHT22;27271;45.412;10.852;2023-06-14T06:29:07;21.20;99.90
41547;DHT22;27271;45.412;10.852;2023-06-14T06:32:29;21.10;99.90
41547;DHT22;27271;45.412;10.852;2023-06-14T06:35:51;21.00;98.70
41547;DHT22;27271;45.412;10.852;2023-06-14T06:39:13;20.90;79.00
41547;DHT22;27271;45.412;10.852;2023-06-14T06:42:36;20.80;28.60
41547;DHT22;27271;45.412;10.852;2023-06-14T06:46:00;20.80;99.90
41547;DHT22;27271;45.412;10.852;2023-06-14T06:49:22;20.70;99.90
41547;DHT22;27271;45.412;10.852;2023-06-14T06:52:44;20.80;99.90
41547;DHT22;27271;45.412;10.852;2023-06-14T06:56:07;20.70;56.30
41547;DHT22;27271;45.412;10.852;2023-06-14T06:59:29;20.70;38.10
41547;DHT22;27271;45.412;10.852;2023-06-14T07:02:52;20.80;93.40
41547;DHT22;27271;45.412;10.852;2023-06-14T07:06:17;21.00;97.70
41547;DHT22;27271;45.412;10.852;2023-06-14T07:09:40;21.10;56.90
41547;DHT22;27271;45.412;10.852;2023-06-14T07:13:04;21.10;19.30
41547;DHT22;27271;45.412;10.852;2023-06-14T07:16:26;21.10;99.90
41547;DHT22;27271;45.412;10.852;2023-06-14T07:19:48;21.20;30.60
41547;DHT22;27271;45.412;10.852;2023-06-14T07:23:11;21.30;13.70
41547;DHT22;27271;45.412;10.852;2023-06-14T07:26:34;21.50;69.50
41547;DHT22;27271;45.412;10.852;2023-06-14T07:29:57;21.40;8.40
41547;DHT22;27271;45.412;10.852;2023-06-14T07:33:19;21.40;15.00
41547;DHT22;27271;45.412;10.852;2023-06-14T07:36:41;21.60;10.30
41547;DHT22;27271;45.412;10.852;2023-06-14T07:40:06;21.70;1.00
41547;DHT22;27271;45.412;10.852;2023-06-14T07:43:29;21.90;1.00
41547;DHT22;27271;45.412;10.852;2023-06-14T07:46:51;22.00;1.00
41547;DHT22;27271;45.412;10.852;2023-06-14T07:50:13;22.30;1.00
41547;DHT22;27271;45.412;10.852;2023-06-14T07:53:36;22.40;1.20
41547;DHT22;27271;45.412;10.852;2023-06-14T07:56:58;22.60;1.00
41547;DHT22;27271;45.412;10.852;2023-06-14T08:00:22;22.70;1.00
41547;DHT22;27271;45.412;10.852;2023-06-14T08:03:44;22.70;1.00
41547;DHT22;27271;45.412;10.852;2023-06-14T08:07:07;22.50;1.00
41547;DHT22;27271;45.412;10.852;2023-06-14T08:10:29;22.60;1.00
41547;DHT22;27271;45.412;10.852;2023-06-14T08:13:51;22.90;1.00
41547;DHT22;27271;45.412;10.852;2023-06-14T08:17:13;23.20;1.00
41547;DHT22;27271;45.412;10.852;2023-06-14T08:20:35;23.30;1.00
41547;DHT22;27271;45.412;10.852;2023-06-14T08:23:57;23.30;1.00
41547;DHT22;27271;45.412;10.852;2023-06-14T08:27:20;23.30;1.00
41547;DHT22;27271;45.412;10.852;2023-06-14T08:30:42;23.20;1.00
41547;DHT22;27271;45.412;10.852;2023-06-14T08:34:05;23.30;1.00
41547;DHT22;27271;45.412;10.852;2023-06-14T08:37:28;23.40;1.00
41547;DHT22;27271;45.412;10.852;2023-06-14T08:40:52;23.40;1.00
41547;DHT22;27271;45.412;10.852;2023-06-14T08:44:18;23.50;1.00
41547;DHT22;27271;45.412;10.852;2023-06-14T08:47:41;23.80;1.00
41547;DHT22;27271;45.412;10.852;2023-06-14T08:51:04;23.70;1.00
41547;DHT22;27271;45.412;10.852;2023-06-14T08:54:28;24.00;1.00
41547;DHT22;27271;45.412;10.852;2023-06-14T08:57:54;24.10;1.00
41547;DHT22;27271;45.412;10.852;2023-06-14T09:01:16;24.10;1.00
41547;DHT22;27271;45.412;10.852;2023-06-14T09:04:39;24.10;1.00
41547;DHT22;27271;45.412;10.852;2023-06-14T09:08:04;24.30;1.00
41547;DHT22;27271;45.412;10.852;2023-06-14T09:11:27;24.50;1.00
41547;DHT22;27271;45.412;10.852;2023-06-14T09:14:49;24.70;1.00
41547;DHT22;27271;45.412;10.852;2023-06-14T09:18:12;24.80;1.00
41547;DHT22;27271;45.412;10.852;2023-06-14T09:21:34;24.60;1.00
41547;DHT22;27271;45.412;10.852;2023-06-14T09:24:59;24.60;1.00
41547;DHT22;27271;45.412;10.852;2023-06-14T09:28:27;24.20;1.00
41547;DHT22;27271;45.412;10.852;2023-06-14T09:31:49;24.50;1.00
41547;DHT22;27271;45.412;10.852;2023-06-14T09:35:11;24.80;1.00
41547;DHT22;27271;45.412;10.852;2023-06-14T09:38:34;24.90;1.00
41547;DHT22;27271;45.412;10.852;2023-06-14T09:41:56;25.00;1.00
41547;DHT22;27271;45.412;10.852;2023-06-14T09:45:18;24.90;1.00
41547;DHT22;27271;45.412;10.852;2023-06-14T09:48:43;25.10;1.00
41547;DHT22;27271;45.412;10.852;2023-06-14T09:52:06;25.20;1.00
41547;DHT22;27271;45.412;10.852;2023-06-14T09:55:34;25.10;1.00
41547;DHT22;27271;45.412;10.852;2023-06-14T09:58:59;25.40;1.00
41547;DHT22;27271;45.412;10.852;2023-06-14T10:02:34;25.30;1.00
41547;DHT22;27271;45.412;10.852;2023-06-14T10:06:01;25.40;1.00
41547;DHT22;27271;45.412;10.852;2023-06-14T10:09:24;25.60;1.00
41547;DHT22;27271;45.412;10.852;2023-06-14T10:12:47;25.80;1.00
41547;DHT22;27271;45.412;10.852;2023-06-14T10:16:30;25.70;1.00
41547;DHT22;27271;45.412;10.852;2023-06-14T10:23:41;25.90;1.00
41547;DHT22;27271;45.412;10.852;2023-06-14T10:27:07;25.90;1.00
41547;DHT22;27271;45.412;10.852;2023-06-14T10:30:32;26.30;1.00
41547;DHT22;27271;45.412;10.852;2023-06-14T10:37:16;26.80;1.00
41547;DHT22;27271;45.412;10.852;2023-06-14T10:40:39;26.80;1.00
41547;DHT22;27271;45.412;10.852;2023-06-14T10:47:36;27.10;1.00
41547;DHT22;27271;45.412;10.852;2023-06-14T10:51:01;26.50;1.00
41547;DHT22;27271;45.412;10.852;2023-06-14T10:54:24;26.70;1.00
41547;DHT22;27271;45.412;10.852;2023-06-14T10:57:50;26.70;1.00
41547;DHT22;27271;45.412;10.852;2023-06-14T11:01:16;26.80;1.00
41547;DHT22;27271;45.412;10.852;2023-06-14T11:04:49;26.50;1.00
41547;DHT22;27271;45.412;10.852;2023-06-14T11:11:58;27.30;99.90
41547;DHT22;27271;45.412;10.852;2023-06-14T11:15:20;27.00;99.90
41547;DHT22;27271;45.412;10.852;2023-06-14T11:18:44;27.40;99.90
41547;DHT22;27271;45.412;10.852;2023-06-14T11:22:07;28.60;99.90
41547;DHT22;27271;45.412;10.852;2023-06-14T11:25:30;29.30;99.90
41547;DHT22;27271;45.412;10.852;2023-06-14T11:28:56;30.10;99.90
41547;DHT22;27271;45.412;10.852;2023-06-14T11:32:19;30.40;99.90
41547;DHT22;27271;45.412;10.852;2023-06-14T11:35:42;29.70;99.90
41547;DHT22;27271;45.412;10.852;2023-06-14T11:39:06;28.50;99.90
41547;DHT22;27271;45.412;10.852;2023-06-14T11:42:31;28.00;99.90
41547;DHT22;27271;45.412;10.852;2023-06-14T11:45:53;27.80;99.90
41547;DHT22;27271;45.412;10.852;2023-06-14T11:49:29;27.60;99.90
41547;DHT22;27271;45.412;10.852;2023-06-14T11:52:57;27.00;99.90
41547;DHT22;27271;45.412;10.852;2023-06-14T11:56:21;26.80;99.90
41547;DHT22;27271;45.412;10.852;2023-06-14T11:59:44;27.10;99.90
41547;DHT22;27271;45.412;10.852;2023-06-14T12:03:07;26.90;99.90
41547;DHT22;27271;45.412;10.852;2023-06-14T12:06:30;27.30;99.90
41547;DHT22;27271;45.412;10.852;2023-06-14T12:13:20;27.80;99.90
41547;DHT22;27271;45.412;10.852;2023-06-14T12:16:42;27.10;99.90
41547;DHT22;27271;45.412;10.852;2023-06-14T12:20:09;27.00;99.90
41547;DHT22;27271;45.412;10.852;2023-06-14T12:23:59;27.00;99.90
41547;DHT22;27271;45.412;10.852;2023-06-14T12:27:21;27.50;99.90
41547;DHT22;27271;45.412;10.852;2023-06-14T12:30:45;28.20;99.90
41547;DHT22;27271;45.412;10.852;2023-06-14T12:34:07;27.80;99.90
41547;DHT22;27271;45.412;10.852;2023-06-14T12:37:30;27.00;99.90
41547;DHT22;27271;45.412;10.852;2023-06-14T12:40:52;26.40;99.90
41547;DHT22;27271;45.412;10.852;2023-06-14T12:44:15;26.30;99.90
41547;DHT22;27271;45.412;10.852;2023-06-14T12:47:37;26.60;99.90
41547;DHT22;27271;45.412;10.852;2023-06-14T12:50:59;27.20;99.90
41547;DHT22;27271;45.412;10.852;2023-06-14T12:54:21;27.30;99.90
41547;DHT22;27271;45.412;10.852;2023-06-14T12:58:01;27.50;99.90
41547;DHT22;27271;45.412;10.852;2023-06-14T13:01:24;27.90;99.90
41547;DHT22;27271;45.412;10.852;2023-06-14T13:04:46;27.90;99.90
41547;DHT22;27271;45.412;10.852;2023-06-14T13:08:09;27.80;99.90
41547;DHT22;27271;45.412;10.852;2023-06-14T13:11:31;27.10;99.90
41547;DHT22;27271;45.412;10.852;2023-06-14T13:14:53;27.40;99.90
41547;DHT22;27271;45.412;10.852;2023-06-14T13:18:15;27.50;99.90
41547;DHT22;27271;45.412;10.852;2023-06-14T13:21:37;27.50;99.90
41547;DHT22;27271;45.412;10.852;2023-06-14T13:24:59;27.80;99.90
41547;DHT22;27271;45.412;10.852;2023-06-14T13:28:22;27.60;99.90
41547;DHT22;27271;45.412;10.852;2023-06-14T13:31:44;27.40;99.90
41547;DHT22;27271;45.412;10.852;2023-06-14T13:35:07;27.50;99.90
41547;DHT22;27271;45.412;10.852;2023-06-14T13:38:29;27.50;99.90
41547;DHT22;27271;45.412;10.852;2023-06-14T13:41:51;27.80;99.90
41547;DHT22;27271;45.412;10.852;2023-06-14T13:45:15;28.40;99.90
41547;DHT22;27271;45.412;10.852;2023-06-14T13:48:37;28.90;99.90
41547;DHT22;27271;45.412;10.852;2023-06-14T13:51:59;28.90;99.90
41547;DHT22;27271;45.412;10.852;2023-06-14T13:55:21;28.60;99.90
41547;DHT22;27271;45.412;10.852;2023-06-14T13:58:44;28.50;99.90
41547;DHT22;27271;45.412;10.852;2023-06-14T14:02:07;28.40;99.90
41547;DHT22;27271;45.412;10.852;2023-06-14T14:05:30;28.70;99.90
41547;DHT22;27271;45.412;10.852;2023-06-14T14:08:52;29.00;99.90
41547;DHT22;27271;45.412;10.852;2023-06-14T14:12:15;28.40;99.90
41547;DHT22;27271;45.412;10.852;2023-06-14T14:15:37;28.10;99.90
41547;DHT22;27271;45.412;10.852;2023-06-14T14:18:59;28.30;99.90
41547;DHT22;27271;45.412;10.852;2023-06-14T14:22:22;28.20;99.90
41547;DHT22;27271;45.412;10.852;2023-06-14T14:25:44;28.30;99.90
41547;DHT22;27271;45.412;10.852;2023-06-14T14:29:06;28.20;99.90
41547;DHT22;27271;45.412;10.852;2023-06-14T14:32:29;28.70;99.90
41547;DHT22;27271;45.412;10.852;2023-06-14T14:35:51;28.50;99.90
41547;DHT22;27271;45.412;10.852;2023-06-14T14:39:13;28.40;99.90
41547;DHT22;27271;45.412;10.852;2023-06-14T14:42:36;28.80;99.90
41547;DHT22;27271;45.412;10.852;2023-06-14T14:45:58;29.30;99.90
41547;DHT22;27271;45.412;10.852;2023-06-14T14:49:21;28.60;99.90
41547;DHT22;27271;45.412;10.852;2023-06-14T14:52:43;28.40;99.90
41547;DHT22;27271;45.412;10.852;2023-06-14T14:56:05;28.50;99.90
41547;DHT22;27271;45.412;10.852;2023-06-14T14:59:28;28.40;99.90
41547;DHT22;27271;45.412;10.852;2023-06-14T15:02:50;28.10;99.90
41547;DHT22;27271;45.412;10.852;2023-06-14T15:06:12;28.30;99.90
41547;DHT22;27271;45.412;10.852;2023-06-14T15:09:34;27.90;99.90
41547;DHT22;27271;45.412;10.852;2023-06-14T15:12:57;27.30;99.90
41547;DHT22;27271;45.412;10.852;2023-06-14T15:16:19;27.40;99.90
41547;DHT22;27271;45.412;10.852;2023-06-14T15:19:42;27.40;99.90
41547;DHT22;27271;45.412;10.852;2023-06-14T15:23:04;27.70;99.90
41547;DHT22;27271;45.412;10.852;2023-06-14T15:26:26;28.30;99.90
41547;DHT22;27271;45.412;10.852;2023-06-14T15:29:50;28.40;99.90
41547;DHT22;27271;45.412;10.852;2023-06-14T15:33:12;28.50;99.90
41547;DHT22;27271;45.412;10.852;2023-06-14T15:36:34;28.60;99.90
41547;DHT22;27271;45.412;10.852;2023-06-14T15:39:57;28.70;99.90
41547;DHT22;27271;45.412;10.852;2023-06-14T15:43:19;28.50;99.90
41547;DHT22;27271;45.412;10.852;2023-06-14T15:46:41;28.40;99.90
41547;DHT22;27271;45.412;10.852;2023-06-14T15:50:04;28.30;99.90
41547;DHT22;27271;45.412;10.852;2023-06-14T15:53:29;28.40;99.90
41547;DHT22;27271;45.412;10.852;2023-06-14T15:56:51;28.60;99.90
41547;DHT22;27271;45.412;10.852;2023-06-14T16:00:14;28.60;99.90
41547;DHT22;27271;45.412;10.852;2023-06-14T16:03:37;28.30;99.90
41547;DHT22;27271;45.412;10.852;2023-06-14T16:06:59;28.10;99.90
41547;DHT22;27271;45.412;10.852;2023-06-14T16:10:22;28.30;99.90
41547;DHT22;27271;45.412;10.852;2023-06-14T16:13:45;28.30;99.90
41547;DHT22;27271;45.412;10.852;2023-06-14T16:17:08;28.00;99.90
41547;DHT22;27271;45.412;10.852;2023-06-14T16:20:30;27.50;99.90
41547;DHT22;27271;45.412;10.852;2023-06-14T16:23:52;27.60;99.90
41547;DHT22;27271;45.412;10.852;2023-06-14T16:27:14;27.40;99.90
41547;DHT22;27271;45.412;10.852;2023-06-14T16:30:40;27.60;99.90
41547;DHT22;27271;45.412;10.852;2023-06-14T16:34:02;27.50;99.90
41547;DHT22;27271;45.412;10.852;2023-06-14T16:37:26;27.10;99.90
41547;DHT22;27271;45.412;10.852;2023-06-14T16:40:48;26.80;99.90
41547;DHT22;27271;45.412;10.852;2023-06-14T16:44:10;26.70;99.90
41547;DHT22;27271;45.412;10.852;2023-06-14T16:47:33;26.60;99.90
41547;DHT22;27271;45.412;10.852;2023-06-14T16:50:56;26.50;99.90
41547;DHT22;27271;45.412;10.852;2023-06-14T16:54:18;26.30;99.90
41547;DHT22;27271;45.412;10.852;2023-06-14T16:57:40;26.50;99.90
41547;DHT22;27271;45.412;10.852;2023-06-14T17:01:02;26.50;99.90
41547;DHT22;27271;45.412;10.852;2023-06-14T17:04:24;26.50;99.90
41547;DHT22;27271;45.412;10.852;2023-06-14T17:07:46;26.50;99.90
41547;DHT22;27271;45.412;10.852;2023-06-14T17:11:09;26.70;99.90
41547;DHT22;27271;45.412;10.852;2023-06-14T17:14:34;26.70;99.90
41547;DHT22;27271;45.412;10.852;2023-06-14T17:17:56;26.40;99.90
41547;DHT22;27271;45.412;10.852;2023-06-14T17:21:18;26.20;99.90
41547;DHT22;27271;45.412;10.852;2023-06-14T17:24:40;26.10;99.90
41547;DHT22;27271;45.412;10.852;2023-06-14T17:28:02;26.20;99.90
41547;DHT22;27271;45.412;10.852;2023-06-14T17:31:28;26.20;99.90
41547;DHT22;27271;45.412;10.852;2023-06-14T17:34:51;26.00;99.90
41547;DHT22;27271;45.412;10.852;2023-06-14T17:38:13;26.10;99.90
41547;DHT22;27271;45.412;10.852;2023-06-14T17:41:35;26.10;99.90
41547;DHT22;27271;45.412;10.852;2023-06-14T17:44:57;25.90;99.90
41547;DHT22;27271;45.412;10.852;2023-06-14T17:48:20;25.70;99.90
41547;DHT22;27271;45.412;10.852;2023-06-14T17:51:42;25.70;99.90
41547;DHT22;27271;45.412;10.852;2023-06-14T17:55:08;25.50;99.90
41547;DHT22;27271;45.412;10.852;2023-06-14T17:58:34;25.50;99.90
41547;DHT22;27271;45.412;10.852;2023-06-14T18:01:57;25.50;99.90
41547;DHT22;27271;45.412;10.852;2023-06-14T18:05:20;25.60;99.90
41547;DHT22;27271;45.412;10.852;2023-06-14T18:08:42;25.70;99.90
41547;DHT22;27271;45.412;10.852;2023-06-14T18:12:06;25.50;99.90
41547;DHT22;27271;45.412;10.852;2023-06-14T18:15:31;25.50;99.90
41547;DHT22;27271;45.412;10.852;2023-06-14T18:18:53;25.30;99.90
41547;DHT22;27271;45.412;10.852;2023-06-14T18:22:15;25.10;99.90
41547;DHT22;27271;45.412;10.852;2023-06-14T18:25:37;25.00;99.90
41547;DHT22;27271;45.412;10.852;2023-06-14T18:29:00;24.80;99.90
41547;DHT22;27271;45.412;10.852;2023-06-14T18:32:23;24.60;99.90
41547;DHT22;27271;45.412;10.852;2023-06-14T18:35:45;24.40;99.90
41547;DHT22;27271;45.412;10.852;2023-06-14T18:39:07;24.10;99.90
41547;DHT22;27271;45.412;10.852;2023-06-14T18:42:31;24.00;99.90
41547;DHT22;27271;45.412;10.852;2023-06-14T18:45:57;23.80;99.90
41547;DHT22;27271;45.412;10.852;2023-06-14T18:49:20;23.70;99.90
41547;DHT22;27271;45.412;10.852;2023-06-14T18:52:42;23.60;99.90
41547;DHT22;27271;45.412;10.852;2023-06-14T18:56:06;23.50;99.90
41547;DHT22;27271;45.412;10.852;2023-06-14T18:59:29;23.30;99.90
41547;DHT22;27271;45.412;10.852;2023-06-14T19:02:51;23.20;99.90
41547;DHT22;27271;45.412;10.852;2023-06-14T19:06:13;23.10;99.90
41547;DHT22;27271;45.412;10.852;2023-06-14T19:09:35;23.00;99.90
41547;DHT22;27271;45.412;10.852;2023-06-14T19:12:58;23.00;1.00
41547;DHT22;27271;45.412;10.852;2023-06-14T19:16:20;22.90;1.00
41547;DHT22;27271;45.412;10.852;2023-06-14T19:19:42;22.90;1.00
41547;DHT22;27271;45.412;10.852;2023-06-14T19:23:05;22.90;1.00
41547;DHT22;27271;45.412;10.852;2023-06-14T19:26:27;22.90;1.00
41547;DHT22;27271;45.412;10.852;2023-06-14T19:29:52;22.80;1.00
41547;DHT22;27271;45.412;10.852;2023-06-14T19:33:14;22.80;1.00
41547;DHT22;27271;45.412;10.852;2023-06-14T19:36:38;22.70;1.00
41547;DHT22;27271;45.412;10.852;2023-06-14T19:40:00;22.70;1.00
41547;DHT22;27271;45.412;10.852;2023-06-14T19:43:23;22.60;1.00
41547;DHT22;27271;45.412;10.852;2023-06-14T19:46:45;22.50;1.00
41547;DHT22;27271;45.412;10.852;2023-06-14T19:50:07;22.40;1.00
41547;DHT22;27271;45.412;10.852;2023-06-14T19:53:29;22.30;1.00
41547;DHT22;27271;45.412;10.852;2023-06-14T19:56:53;22.20;1.00
41547;DHT22;27271;45.412;10.852;2023-06-14T20:00:15;22.20;1.00
41547;DHT22;27271;45.412;10.852;2023-06-14T20:03:38;22.10;1.00
41547;DHT22;27271;45.412;10.852;2023-06-14T20:07:01;22.00;1.00
41547;DHT22;27271;45.412;10.852;2023-06-14T20:10:23;21.90;1.00
41547;DHT22;27271;45.412;10.852;2023-06-14T20:13:45;21.80;1.00
41547;DHT22;27271;45.412;10.852;2023-06-14T20:17:08;21.70;1.00
41547;DHT22;27271;45.412;10.852;2023-06-14T20:20:30;21.70;1.00
41547;DHT22;27271;45.412;10.852;2023-06-14T20:23:52;21.70;1.00
41547;DHT22;27271;45.412;10.852;2023-06-14T20:27:14;21.60;1.00
41547;DHT22;27271;45.412;10.852;2023-06-14T20:30:36;21.40;1.00
41547;DHT22;27271;45.412;10.852;2023-06-14T20:33:58;21.40;1.00
41547;DHT22;27271;45.412;10.852;2023-06-14T20:37:22;21.30;1.00
41547;DHT22;27271;45.412;10.852;2023-06-14T20:40:46;21.10;1.00
41547;DHT22;27271;45.412;10.852;2023-06-14T20:44:09;20.90;1.00
41547;DHT22;27271;45.412;10.852;2023-06-14T20:47:33;20.80;1.00
41547;DHT22;27271;45.412;10.852;2023-06-14T20:50:55;20.70;1.00
41547;DHT22;27271;45.412;10.852;2023-06-14T20:54:17;20.70;1.00
41547;DHT22;27271;45.412;10.852;2023-06-14T20:57:40;20.60;1.00
41547;DHT22;27271;45.412;10.852;2023-06-14T21:01:02;20.40;1.00
41547;DHT22;27271;45.412;10.852;2023-06-14T21:04:25;20.30;1.00
41547;DHT22;27271;45.412;10.852;2023-06-14T21:07:48;20.30;1.00
41547;DHT22;27271;45.412;10.852;2023-06-14T21:11:11;20.30;1.00
41547;DHT22;27271;45.412;10.852;2023-06-14T21:14:33;20.40;1.00
41547;DHT22;27271;45.412;10.852;2023-06-14T21:17:57;20.40;1.00
41547;DHT22;27271;45.412;10.852;2023-06-14T21:21:20;20.40;1.00
41547;DHT22;27271;45.412;10.852;2023-06-14T21:24:45;20.40;1.00
41547;DHT22;27271;45.412;10.852;2023-06-14T21:28:07;20.40;1.00
41547;DHT22;27271;45.412;10.852;2023-06-14T21:31:30;20.40;1.00
41547;DHT22;27271;45.412;10.852;2023-06-14T21:34:52;20.40;1.00
41547;DHT22;27271;45.412;10.852;2023-06-14T21:38:14;20.40;1.00
41547;DHT22;27271;45.412;10.852;2023-06-14T21:41:37;20.40;1.00
41547;DHT22;27271;45.412;10.852;2023-06-14T21:45:00;20.40;1.00
41547;DHT22;27271;45.412;10.852;2023-06-14T21:48:23;20.30;1.00
41547;DHT22;27271;45.412;10.852;2023-06-14T21:51:45;20.20;9.10
41547;DHT22;27271;45.412;10.852;2023-06-14T21:55:09;20.30;44.80
41547;DHT22;27271;45.412;10.852;2023-06-14T21:58:32;20.30;30.20
41547;DHT22;27271;45.412;10.852;2023-06-14T22:01:55;20.30;45.80
41547;DHT22;27271;45.412;10.852;2023-06-14T22:05:17;20.20;62.10
41547;DHT22;27271;45.412;10.852;2023-06-14T22:08:39;20.20;66.40
41547;DHT22;27271;45.412;10.852;2023-06-14T22:12:04;20.20;1.00
41547;DHT22;27271;45.412;10.852;2023-06-14T22:15:27;20.30;1.00
41547;DHT22;27271;45.412;10.852;2023-06-14T22:18:49;20.40;1.00
41547;DHT22;27271;45.412;10.852;2023-06-14T22:22:12;20.50;1.00
41547;DHT22;27271;45.412;10.852;2023-06-14T22:25:34;20.60;1.00
41547;DHT22;27271;45.412;10.852;2023-06-14T22:28:57;20.60;1.00
